Perseverance — WDC7281 — position and weather

sailwx.info

Track history (hours):
 
Tides and Currents Weather Stations Pressure Air Temp Water Temp Dewpoint Dewpoint Depression Visibility Wind Speed Wind Dir Waves Ship Positions

Perseverance

Owner: Berman, Jeffrey R, Oakland, CA. More information available from US FCC via Universal Licensing System and Coast Guard Vessel Documentation Center.

Last reported at 2017-Nov-25 04:23 UTC. Time now 2017-Dec-12 06:21 UTC.
Position N 37°47' W 122°16'.
Warning: this ship's position is 17 days out of date.

Length 12 m.

Type: Sailing vessel. MMSI: 367069020.

Date/timePositionNaut miles runAvg speedWind from/ knotsBaromVisibWave heightAir tempDewpointWater temp
2017-Nov-25 04:23N 37°47' W 122°16'0 0.0
2017-Nov-25 03:47N 37°47' W 122°16'0 1.1
2017-Nov-25 03:30N 37°47' W 122°16'3 5.7
2017-Nov-25 03:00N 37°48' W 122°20'3 6.1
2017-Nov-25 02:30N 37°45' W 122°21'4 7.3
2017-Nov-25 02:00N 37°41' W 122°20'7 0.1
2017-Nov-23 00:53N 37°35' W 122°16'2 5.1
2017-Nov-23 00:30N 37°37' W 122°17'3 5.2
2017-Nov-23 00:00N 37°39' W 122°19'3 5.5
2017-Nov-22 23:30N 37°42' W 122°21'3 5.8
2017-Nov-22 22:59N 37°45' W 122°21'3 5.4
2017-Nov-22 22:30N 37°47' W 122°21'2 4.8
2017-Nov-22 22:00N 37°48' W 122°18'  
Track history (hours):
 
Tides and Currents Weather Stations Pressure Air Temp Water Temp Dewpoint Dewpoint Depression Visibility Wind Speed Wind Dir Waves Ship Positions

Perseverance

Owner: Berman, Jeffrey R, Oakland, CA. More information available from US FCC via Universal Licensing System and Coast Guard Vessel Documentation Center.

Last reported at 2017-Nov-25 04:23 UTC. Time now 2017-Dec-12 06:21 UTC.
Position N 37°47' W 122°16'.
Warning: this ship's position is 17 days out of date.

Length 12 m.

Type: Sailing vessel. MMSI: 367069020.

Date/timePositionNaut miles runAvg speedWind from/ knotsBaromVisibWave heightAir tempDewpointWater temp
2017-Nov-25 04:23N 37°47' W 122°16'0 0.0
2017-Nov-25 03:47N 37°47' W 122°16'0 1.1
2017-Nov-25 03:30N 37°47' W 122°16'3 5.7
2017-Nov-25 03:00N 37°48' W 122°20'3 6.1
2017-Nov-25 02:30N 37°45' W 122°21'4 7.3
2017-Nov-25 02:00N 37°41' W 122°20'7 0.1
2017-Nov-23 00:53N 37°35' W 122°16'2 5.1
2017-Nov-23 00:30N 37°37' W 122°17'3 5.2
2017-Nov-23 00:00N 37°39' W 122°19'3 5.5
2017-Nov-22 23:30N 37°42' W 122°21'3 5.8
2017-Nov-22 22:59N 37°45' W 122°21'3 5.4
2017-Nov-22 22:30N 37°47' W 122°21'2 4.8
2017-Nov-22 22:00N 37°48' W 122°18'  

Dump ship's entire track history